createdAt,value
2022-11-02T00:01:04.768Z,2.90
2022-11-02T00:06:59.771Z,2.00
2022-11-02T00:09:52.044Z,2.13
2022-11-02T00:12:35.782Z,1.97
2022-11-02T00:18:06.265Z,2.07
2022-11-02T00:24:08.642Z,1.60
2022-11-02T04:03:22.838Z,1.87
2022-11-02T04:08:55.437Z,2.80
2022-11-02T04:11:52.361Z,3.03
2022-11-02T04:14:43.766Z,2.47
2022-11-02T04:20:36.691Z,2.20
2022-11-02T04:23:35.484Z,2.43
2022-11-02T04:26:04.269Z,3.20
2022-11-02T04:28:42.447Z,2.90
2022-11-02T04:31:18.398Z,2.67
2022-11-02T04:33:53.431Z,2.43
2022-11-02T04:36:38.106Z,2.27
2022-11-02T04:39:18.085Z,1.93
2022-11-02T04:41:48.897Z,3.23
2022-11-02T04:44:17.944Z,2.90
2022-11-02T04:46:46.566Z,2.10
2022-11-02T04:49:19.661Z,1.67
2022-11-02T04:51:50.048Z,1.80
2022-11-02T04:54:18.142Z,1.80
2022-11-02T04:56:48.671Z,2.50
2022-11-02T04:59:17.068Z,1.73
2022-11-02T05:01:45.551Z,2.33
2022-11-02T05:04:13.777Z,1.87
2022-11-02T05:06:41.918Z,1.80
2022-11-02T05:09:12.284Z,2.10
2022-11-02T05:11:40.392Z,1.57
2022-11-02T05:14:11.596Z,1.97
2022-11-02T05:16:39.656Z,2.33
2022-11-02T05:19:11.324Z,2.43
2022-11-02T05:21:39.440Z,2.87
2022-11-02T05:24:08.696Z,2.67
2022-11-02T05:26:38.226Z,2.83
2022-11-02T05:29:06.955Z,3.27
2022-11-02T05:31:35.147Z,3.07
2022-11-02T05:34:03.471Z,2.00
2022-11-02T05:36:31.460Z,2.70
2022-11-02T05:39:00.226Z,2.03
2022-11-02T05:41:37.654Z,2.60
2022-11-02T05:44:08.102Z,2.60
2022-11-02T05:46:36.616Z,2.77
2022-11-02T05:49:05.264Z,2.53
2022-11-02T05:51:33.908Z,2.00
2022-11-02T05:54:02.206Z,2.33
2022-11-02T05:56:32.748Z,1.87
2022-11-02T05:59:01.072Z,2.40
2022-11-02T06:01:30.761Z,2.83
2022-11-02T06:03:59.047Z,2.90
2022-11-02T06:06:27.902Z,2.67
2022-11-02T06:08:56.590Z,3.00
2022-11-02T06:11:25.168Z,2.50
2022-11-02T06:13:53.454Z,2.10
2022-11-02T06:16:23.247Z,2.07
2022-11-02T06:18:53.477Z,2.13
2022-11-02T06:21:21.725Z,3.10
2022-11-02T06:23:50.481Z,2.07
2022-11-02T06:26:18.832Z,2.23
2022-11-02T06:28:47.051Z,2.07
2022-11-02T06:31:18.449Z,2.53
2022-11-02T06:33:46.786Z,2.40
2022-11-02T06:36:16.499Z,2.53
2022-11-02T06:38:46.237Z,1.90
2022-11-02T06:41:14.893Z,5.10
2022-11-02T06:43:43.146Z,2.27
2022-11-02T06:46:12.006Z,2.37
2022-11-02T06:48:40.343Z,2.50
2022-11-02T06:51:09.097Z,2.17
2022-11-02T06:53:38.837Z,2.73
2022-11-02T06:56:31.569Z,2.53
2022-11-02T06:59:01.435Z,2.83
2022-11-02T07:01:32.317Z,2.40
2022-11-02T07:04:00.995Z,2.43
2022-11-02T07:06:32.860Z,2.37
2022-11-02T07:09:02.405Z,2.20
2022-11-02T07:11:30.634Z,2.03
2022-11-02T07:14:04.345Z,2.20
2022-11-02T07:16:48.382Z,2.50
2022-11-02T07:19:24.599Z,3.13
2022-11-02T07:22:01.170Z,2.40
2022-11-02T07:24:35.159Z,3.90
2022-11-02T07:30:52.854Z,2.87
2022-11-02T07:33:26.808Z,2.63
2022-11-02T07:36:00.299Z,2.57
2022-11-02T07:41:28.814Z,2.37
2022-11-02T07:47:03.639Z,3.27
2022-11-02T07:49:38.709Z,2.87
2022-11-02T07:52:09.140Z,2.70
2022-11-02T07:54:49.913Z,2.50
2022-11-02T07:57:20.189Z,2.70
2022-11-02T07:59:49.787Z,3.90
2022-11-02T08:02:20.479Z,2.70
2022-11-02T08:04:48.708Z,2.97
2022-11-02T08:07:16.854Z,3.20
2022-11-02T08:09:45.207Z,2.60
2022-11-02T08:12:13.952Z,3.10
2022-11-02T08:14:43.438Z,2.47
2022-11-02T08:17:12.538Z,2.43
2022-11-02T08:19:41.024Z,3.03
2022-11-02T08:22:10.872Z,3.03
2022-11-02T08:24:39.542Z,3.00
2022-11-02T08:27:21.610Z,3.20
2022-11-02T08:29:53.130Z,2.53
2022-11-02T08:32:21.492Z,2.40
2022-11-02T08:34:50.098Z,2.87
2022-11-02T08:37:28.776Z,2.70
2022-11-02T08:40:02.672Z,3.00
2022-11-02T08:42:50.373Z,3.10
2022-11-02T08:45:20.166Z,3.40
2022-11-02T08:47:50.995Z,2.77
2022-11-02T08:50:19.752Z,3.17
2022-11-02T08:52:52.476Z,3.57
2022-11-02T08:55:33.303Z,2.87
2022-11-02T08:58:05.235Z,3.73
2022-11-02T09:00:37.204Z,3.30
2022-11-02T09:03:07.847Z,2.87
2022-11-02T09:05:39.039Z,2.40
2022-11-02T09:10:55.082Z,3.83
2022-11-02T09:13:25.733Z,2.83
2022-11-02T09:16:03.773Z,3.67
2022-11-02T09:18:56.436Z,4.10
2022-11-02T09:21:24.893Z,3.37
2022-11-02T09:23:56.289Z,2.93
2022-11-02T09:26:30.072Z,3.60
2022-11-02T09:28:58.855Z,3.80
2022-11-02T09:32:12.814Z,2.80
2022-11-02T09:44:08.472Z,3.50
2022-11-02T09:46:40.683Z,3.93
2022-11-02T09:57:25.180Z,4.23
2022-11-02T10:03:10.810Z,3.57
2022-11-02T10:14:06.464Z,3.73
2022-11-02T10:49:47.692Z,3.80
2022-11-02T10:53:40.203Z,3.10
2022-11-02T10:56:58.839Z,3.40
2022-11-02T11:43:04.456Z,3.20
2022-11-02T11:53:45.921Z,3.30
2022-11-02T11:57:05.735Z,3.87
2022-11-02T12:31:43.839Z,3.03
2022-11-02T12:35:27.834Z,3.17
2022-11-02T12:38:36.744Z,3.33
2022-11-02T13:10:53.379Z,3.87
2022-11-02T14:25:00.568Z,3.37
2022-11-02T14:31:25.913Z,3.70
2022-11-02T14:42:15.859Z,3.53
2022-11-02T14:45:30.907Z,3.57
2022-11-02T14:51:05.756Z,3.70
2022-11-02T14:53:41.946Z,3.53
2022-11-02T14:56:14.497Z,4.50
2022-11-02T14:58:57.116Z,5.00
2022-11-02T15:01:35.760Z,4.67
2022-11-02T15:04:08.818Z,3.63
2022-11-02T15:06:38.756Z,5.27
2022-11-02T15:09:07.479Z,4.37
2022-11-02T15:15:54.561Z,5.23
2022-11-02T15:18:55.430Z,4.17
2022-11-02T15:21:36.691Z,5.70
2022-11-02T15:24:38.271Z,5.93
2022-11-02T15:27:21.480Z,4.60
2022-11-02T15:29:55.598Z,5.37
2022-11-02T15:32:38.874Z,5.50
2022-11-02T15:35:39.743Z,4.47
2022-11-02T15:38:19.137Z,4.60
2022-11-02T15:41:00.982Z,4.40
2022-11-02T15:43:59.610Z,4.27
2022-11-02T15:46:41.121Z,4.67
2022-11-02T15:49:24.684Z,5.30
2022-11-02T15:52:00.511Z,3.77
2022-11-02T15:54:51.240Z,4.33
2022-11-02T15:57:32.822Z,4.60
2022-11-02T16:00:24.184Z,3.43
2022-11-02T16:02:58.103Z,4.13
2022-11-02T16:05:28.723Z,4.23
2022-11-02T16:08:10.803Z,4.43
2022-11-02T16:10:39.384Z,4.40
2022-11-02T16:13:17.324Z,4.43
2022-11-02T16:15:46.574Z,4.63
2022-11-02T16:18:29.263Z,4.10
2022-11-02T16:21:02.271Z,4.37
2022-11-02T16:23:34.650Z,4.23
2022-11-02T16:26:05.598Z,4.40
2022-11-02T16:28:37.434Z,3.50
2022-11-02T16:31:18.538Z,4.07
2022-11-02T16:33:50.592Z,4.33
2022-11-02T16:36:21.322Z,4.17
2022-11-02T16:39:00.027Z,4.23
2022-11-02T16:41:30.748Z,3.87
2022-11-02T16:44:02.357Z,3.83
2022-11-02T16:46:32.135Z,4.43
2022-11-02T16:49:18.216Z,3.13
2022-11-02T16:51:54.446Z,3.30
2022-11-02T16:54:32.467Z,2.83
2022-11-02T16:57:08.758Z,3.07
2022-11-02T16:59:50.796Z,3.57
2022-11-02T17:02:25.771Z,4.33
2022-11-02T17:05:02.520Z,8.20
2022-11-02T17:07:37.036Z,7.77
2022-11-02T17:10:08.124Z,5.70
2022-11-02T17:12:40.481Z,8.70
2022-11-02T17:15:17.563Z,7.90
2022-11-02T17:17:46.340Z,8.80
2022-11-02T17:20:20.378Z,7.07
2022-11-02T17:22:59.930Z,8.50
2022-11-02T17:25:31.037Z,5.73
2022-11-02T17:28:00.720Z,4.77
2022-11-02T17:30:48.832Z,6.10
2022-11-02T17:33:25.103Z,5.43
2022-11-02T17:35:54.863Z,7.47
2022-11-02T17:38:27.345Z,8.60
2022-11-02T17:40:57.399Z,6.50
2022-11-02T17:43:24.456Z,6.43
2022-11-02T17:45:57.075Z,6.70
2022-11-02T17:48:25.672Z,6.07
2022-11-02T17:50:55.960Z,7.70
2022-11-02T17:56:33.049Z,8.93
2022-11-02T17:59:14.567Z,9.30
2022-11-02T18:01:44.608Z,7.83
2022-11-02T18:04:16.341Z,6.10
2022-11-02T18:06:48.472Z,6.87
2022-11-02T18:09:19.542Z,6.13
2022-11-02T18:11:51.003Z,7.00
2022-11-02T18:14:19.504Z,5.97
2022-11-02T18:16:48.250Z,5.97
2022-11-02T18:19:22.191Z,6.70
2022-11-02T18:21:52.539Z,4.60
2022-11-02T18:24:21.021Z,4.50
2022-11-02T18:26:52.316Z,4.40
2022-11-02T18:29:23.180Z,5.83
2022-11-02T18:31:51.797Z,4.87
2022-11-02T18:34:25.102Z,5.90
2022-11-02T18:37:11.950Z,5.30
2022-11-02T18:54:02.352Z,4.93
2022-11-02T18:56:36.714Z,5.20
2022-11-02T19:01:53.682Z,5.33
2022-11-02T19:04:30.809Z,4.43
2022-11-02T19:07:30.373Z,5.90
2022-11-02T19:10:18.913Z,5.23
2022-11-02T19:15:53.788Z,5.10
2022-11-02T19:18:31.237Z,5.53
2022-11-02T19:21:10.167Z,5.43
2022-11-02T19:24:11.547Z,5.53
2022-11-02T19:29:53.719Z,5.33
2022-11-02T19:32:31.341Z,6.03
2022-11-02T19:35:09.205Z,7.57
2022-11-02T19:37:52.753Z,6.73
2022-11-02T19:40:21.801Z,8.13
2022-11-02T19:42:52.039Z,7.80
2022-11-02T19:45:20.384Z,6.13
2022-11-02T19:47:54.635Z,7.50
2022-11-02T19:50:23.301Z,6.83
2022-11-02T19:52:51.632Z,6.90
2022-11-02T19:55:36.990Z,7.97
2022-11-02T19:58:44.624Z,7.00
2022-11-02T20:01:16.596Z,8.40
2022-11-02T20:04:02.959Z,7.40
2022-11-02T20:06:40.036Z,7.57
2022-11-02T20:09:16.553Z,8.30
2022-11-02T20:14:37.096Z,6.33
2022-11-02T20:19:59.903Z,5.27
2022-11-02T20:22:37.372Z,6.27
2022-11-02T20:25:06.208Z,5.90
2022-11-02T20:27:43.255Z,6.97
2022-11-02T20:30:24.016Z,7.03
2022-11-02T20:32:52.400Z,6.03
2022-11-02T20:35:29.732Z,5.63
2022-11-02T20:37:59.514Z,6.23
2022-11-02T20:40:29.101Z,6.00
2022-11-02T20:43:02.663Z,7.00
2022-11-02T20:45:38.560Z,7.53
2022-11-02T20:48:09.524Z,5.73
2022-11-02T20:50:51.385Z,7.03
2022-11-02T20:53:19.749Z,5.93
2022-11-02T20:55:48.007Z,5.73
2022-11-02T20:58:21.334Z,5.23
2022-11-02T21:01:00.019Z,6.60
2022-11-02T21:03:28.314Z,7.33
2022-11-02T21:06:13.204Z,6.73
2022-11-02T21:27:25.125Z,4.10
2022-11-02T22:01:52.465Z,4.77
